« Back
NWS Peachtree City, Ga » Text Product » CSG Terminal Aerodrome Forecast


Printer-friendly Version
Current Version              Previous Versions:   1  2  3  4  5  6  7  8  9  

Terminal Aerodrome Forecast

596
FTUS42 KFFC 172320
TAFCSG
TAF
KCSG 172320Z 1800/1824 34003KT P6SM BKN250
     FM181100 32003KT P6SM SCT150 BKN250
     FM181800 31005KT P6SM BKN060=



USA.gov is the U.S. government's official web portal to all federal, state and local government web resources and services.